Terminal Aerodrome Forecast
Issued by NWS

Home | Current Version | Previous Version | Text Only | Print | Product List | Glossary On
Versions: 1 2 3 4 5 6 7 8 9 10 11 12 13 14 15
000
FTUS46 KSEW 302320
TAFCLM
TAF
KCLM 302320Z 3100/3124 32008KT P6SM SKC
     FM310300 29010KT P6SM FEW060
     FM310800 27010KT P6SM OVC015
     FM311300 27006KT P6SM SCT020 BKN040
     FM311700 33007KT P6SM SCT040 SCT250=

USA.gov is the U.S. government's official web portal to all federal, state and local government web resources and services.